createdAt,value
2018-03-21T00:02:05.827Z,111.27
2018-03-21T00:05:09.021Z,114.90
2018-03-21T00:08:12.191Z,125.17
2018-03-21T00:11:16.130Z,121.87
2018-03-21T00:14:19.284Z,117.77
2018-03-21T00:17:22.468Z,117.60
2018-03-21T00:20:25.650Z,121.50
2018-03-21T00:23:28.816Z,117.43
2018-03-21T00:26:32.009Z,111.87
2018-03-21T00:29:35.167Z,110.57
2018-03-21T00:32:39.097Z,111.57
2018-03-21T00:35:43.136Z,111.10
2018-03-21T00:38:46.279Z,100.83
2018-03-21T00:41:49.474Z,99.37
2018-03-21T00:44:52.643Z,96.20
2018-03-21T00:47:56.606Z,94.70
2018-03-21T00:50:59.908Z,92.30
2018-03-21T00:54:03.056Z,88.17
2018-03-21T00:57:06.234Z,81.97
2018-03-21T01:00:09.388Z,80.83
2018-03-21T01:03:12.574Z,79.30
2018-03-21T01:06:15.753Z,74.70
2018-03-21T01:09:18.892Z,76.13
2018-03-21T01:12:22.070Z,73.87
2018-03-21T01:15:25.233Z,69.17
2018-03-21T01:18:28.477Z,68.80
2018-03-21T01:21:32.418Z,69.27
2018-03-21T01:24:35.567Z,69.23
2018-03-21T01:27:38.733Z,62.70
2018-03-21T01:30:41.867Z,61.07
2018-03-21T01:33:45.249Z,57.00
2018-03-21T01:36:49.189Z,60.67
2018-03-21T01:39:52.359Z,55.57
2018-03-21T01:42:55.524Z,57.80
2018-03-21T01:45:58.677Z,57.23
2018-03-21T01:49:02.665Z,54.63
2018-03-21T01:52:05.852Z,52.13
2018-03-21T01:55:08.999Z,50.67
2018-03-21T01:58:12.176Z,49.37
2018-03-21T02:01:15.317Z,46.20
2018-03-21T02:04:18.505Z,45.37
2018-03-21T02:07:21.685Z,43.97
2018-03-21T02:10:25.652Z,44.37
2018-03-21T02:13:28.858Z,42.10
2018-03-21T02:16:32.140Z,42.83
2018-03-21T02:19:35.334Z,40.77
2018-03-21T02:22:39.246Z,40.03
2018-03-21T02:25:42.415Z,38.83
2018-03-21T02:28:45.682Z,37.23
2018-03-21T02:31:49.602Z,35.73
2018-03-21T02:34:53.537Z,36.67
2018-03-21T02:37:56.692Z,33.97
2018-03-21T02:40:59.867Z,33.53
2018-03-21T02:44:03.078Z,33.47
2018-03-21T02:47:06.254Z,34.17
2018-03-21T02:50:10.213Z,29.80
2018-03-21T02:53:13.358Z,29.27
2018-03-21T02:56:16.521Z,28.27
2018-03-21T02:59:20.457Z,26.97
2018-03-21T03:02:23.625Z,27.23
2018-03-21T03:05:26.815Z,25.20
2018-03-21T03:08:29.966Z,26.43
2018-03-21T03:11:33.943Z,23.80
2018-03-21T03:14:37.152Z,22.63
2018-03-21T03:17:40.476Z,22.63
2018-03-21T03:20:43.657Z,24.27
2018-03-21T03:23:46.947Z,21.57
2018-03-21T03:26:50.888Z,22.23
2018-03-21T03:29:54.072Z,22.27
2018-03-21T03:32:58.123Z,20.20
2018-03-21T03:36:01.318Z,20.10
2018-03-21T03:39:05.243Z,20.07
2018-03-21T03:42:09.175Z,19.17
2018-03-21T03:45:13.114Z,19.53
2018-03-21T03:48:16.283Z,17.20
2018-03-21T03:51:19.456Z,18.10
2018-03-21T03:54:22.615Z,18.17
2018-03-21T03:57:26.580Z,15.47
2018-03-21T04:00:29.877Z,15.83
2018-03-21T04:03:33.788Z,15.70
2018-03-21T04:06:37.727Z,15.80
2018-03-21T04:09:41.656Z,15.30
2018-03-21T04:12:45.606Z,15.70
2018-03-21T04:15:48.898Z,15.00
2018-03-21T04:18:52.094Z,14.50
2018-03-21T04:21:55.263Z,13.87
2018-03-21T04:24:58.417Z,13.33
2018-03-21T04:28:02.394Z,12.77
2018-03-21T04:31:05.565Z,12.60
2018-03-21T04:34:08.733Z,12.70
2018-03-21T04:37:11.893Z,13.33
2018-03-21T04:40:15.046Z,12.07
2018-03-21T04:43:18.216Z,11.57
2018-03-21T04:46:21.389Z,11.70
2018-03-21T04:49:25.319Z,11.57
2018-03-21T04:52:29.272Z,10.97
2018-03-21T04:55:32.430Z,10.33
2018-03-21T04:58:35.590Z,11.23
2018-03-21T05:01:38.729Z,10.77
2018-03-21T05:04:41.890Z,10.43
2018-03-21T05:07:45.824Z,10.00
2018-03-21T05:10:48.969Z,15.37
2018-03-21T05:13:52.142Z,22.97
2018-03-21T05:16:55.287Z,46.77
2018-03-21T05:19:58.545Z,67.40
2018-03-21T05:23:02.594Z,75.93
2018-03-21T05:26:05.736Z,83.53
2018-03-21T05:29:08.916Z,91.67
2018-03-21T05:32:12.068Z,91.67
2018-03-21T05:35:15.252Z,93.70
2018-03-21T05:38:18.409Z,100.30
2018-03-21T05:41:22.388Z,107.50
2018-03-21T05:44:25.585Z,106.40
2018-03-21T05:47:28.750Z,111.57
2018-03-21T05:50:31.937Z,116.90
2018-03-21T05:53:35.123Z,116.33
2018-03-21T05:56:38.310Z,124.27
2018-03-21T05:59:41.486Z,125.47
2018-03-21T06:02:44.642Z,128.80
2018-03-21T06:05:47.825Z,124.47
2018-03-21T06:08:51.749Z,125.03
2018-03-21T06:11:55.695Z,122.00
2018-03-21T06:14:58.881Z,122.03
2018-03-21T06:18:02.925Z,116.80
2018-03-21T06:21:06.871Z,114.77
2018-03-21T06:24:10.022Z,115.57
2018-03-21T06:27:13.210Z,113.67
2018-03-21T06:30:16.384Z,112.30
2018-03-21T06:33:19.540Z,107.53
2018-03-21T06:36:22.735Z,106.73
2018-03-21T06:39:25.928Z,105.17
2018-03-21T06:42:29.146Z,107.50
2018-03-21T06:45:32.325Z,101.13
2018-03-21T06:48:36.279Z,98.37
2018-03-21T06:51:39.453Z,92.90
2018-03-21T06:54:43.384Z,94.03
2018-03-21T06:57:47.289Z,93.40
2018-03-21T07:00:50.456Z,93.33
2018-03-21T07:03:53.609Z,97.37
2018-03-21T07:06:56.778Z,88.90
2018-03-21T07:10:00.039Z,87.33
2018-03-21T07:13:03.181Z,86.10
2018-03-21T07:16:18.266Z,85.00
2018-03-21T07:19:21.403Z,84.13
2018-03-21T07:22:24.764Z,83.67
2018-03-21T07:25:28.730Z,83.33
2018-03-21T07:28:31.912Z,80.17
2018-03-21T07:31:35.094Z,84.13
2018-03-21T07:34:38.231Z,86.37
2018-03-21T07:37:41.416Z,88.60
2018-03-21T07:40:44.561Z,91.90
2018-03-21T07:43:47.730Z,96.10
2018-03-21T07:46:50.901Z,98.90
2018-03-21T07:49:54.050Z,103.80
2018-03-21T07:52:57.230Z,106.23
2018-03-21T07:56:00.423Z,207.03
2018-03-21T07:59:04.430Z,127.50
2018-03-21T08:02:07.625Z,83.00
2018-03-21T08:05:12.439Z,315.90
2018-03-21T08:08:15.698Z,316.63
2018-03-21T08:11:18.839Z,144.50
2018-03-21T08:14:22.017Z,116.17
2018-03-21T08:17:25.192Z,113.00
2018-03-21T08:20:28.358Z,92.30
2018-03-21T08:23:31.537Z,69.70
2018-03-21T08:26:34.738Z,57.57
2018-03-21T08:29:38.677Z,60.43
2018-03-21T08:32:41.816Z,73.03
2018-03-21T08:35:45.002Z,85.07
2018-03-21T08:38:48.172Z,96.33
2018-03-21T08:41:51.312Z,130.77
2018-03-21T08:44:54.488Z,97.37
2018-03-21T08:47:58.245Z,87.17
2018-03-21T08:51:01.404Z,77.43
2018-03-21T08:54:04.707Z,100.30
2018-03-21T08:57:07.908Z,153.73
2018-03-21T09:00:11.133Z,164.47
2018-03-21T09:03:14.332Z,164.50
2018-03-21T09:06:17.473Z,164.70
2018-03-21T09:09:20.652Z,166.87
2018-03-21T09:12:23.805Z,176.93
2018-03-21T09:15:27.768Z,175.70
2018-03-21T09:18:31.009Z,178.83
2018-03-21T09:21:34.188Z,175.50
2018-03-21T09:24:37.357Z,175.27
2018-03-21T09:27:41.282Z,172.67
2018-03-21T09:30:45.230Z,176.73
2018-03-21T09:33:48.386Z,172.37
2018-03-21T09:36:51.566Z,169.37
2018-03-21T09:39:54.740Z,168.17
2018-03-21T09:42:58.660Z,166.80
2018-03-21T09:46:02.206Z,165.73
2018-03-21T09:49:05.713Z,162.43
2018-03-21T09:52:08.915Z,161.00
2018-03-21T09:55:12.863Z,159.00
2018-03-21T09:58:16.056Z,156.30
2018-03-21T10:01:20.005Z,154.37
2018-03-21T10:04:23.164Z,152.00
2018-03-21T10:07:26.343Z,151.83
2018-03-21T10:10:29.521Z,149.10
2018-03-21T10:13:32.728Z,145.87
2018-03-21T10:16:35.925Z,144.20
2018-03-21T10:19:39.142Z,141.30
2018-03-21T10:22:43.080Z,141.77
2018-03-21T10:25:46.298Z,143.00
2018-03-21T10:28:49.475Z,137.63
2018-03-21T10:31:53.434Z,135.33
2018-03-21T10:34:56.602Z,138.50
2018-03-21T10:37:59.949Z,132.63
2018-03-21T10:41:03.358Z,134.73
2018-03-21T10:44:06.524Z,132.60
2018-03-21T10:47:09.691Z,129.17
2018-03-21T10:50:12.851Z,128.03
2018-03-21T10:53:16.081Z,124.37
2018-03-21T10:56:20.044Z,124.50
2018-03-21T10:59:23.198Z,120.63
2018-03-21T11:02:26.378Z,122.53
2018-03-21T11:05:29.757Z,120.33
2018-03-21T11:08:32.945Z,118.83
2018-03-21T11:11:36.947Z,115.80
2018-03-21T11:14:40.156Z,114.40
2018-03-21T11:17:43.443Z,115.10
2018-03-21T11:20:46.605Z,115.37
2018-03-21T11:23:50.551Z,113.23
2018-03-21T11:26:53.732Z,107.97
2018-03-21T11:29:57.660Z,111.03
2018-03-21T11:33:01.638Z,110.73
2018-03-21T11:36:04.815Z,108.73
2018-03-21T11:39:08.006Z,106.27
2018-03-21T11:42:12.020Z,105.33
2018-03-21T11:45:15.156Z,105.30
2018-03-21T11:48:19.085Z,103.87
2018-03-21T11:51:22.993Z,101.67
2018-03-21T11:54:26.177Z,100.77
2018-03-21T11:57:29.378Z,163.97
2018-03-21T12:00:32.620Z,176.20
2018-03-21T12:03:35.770Z,170.20
2018-03-21T12:06:38.921Z,171.70
2018-03-21T12:09:42.105Z,173.13
2018-03-21T12:12:45.278Z,169.40
2018-03-21T12:15:49.206Z,172.27
2018-03-21T12:18:52.380Z,176.87
2018-03-21T12:21:55.544Z,178.13
2018-03-21T12:24:58.754Z,175.80
2018-03-21T12:28:01.960Z,176.00
2018-03-21T12:31:05.165Z,177.23
2018-03-21T12:34:08.367Z,177.17
2018-03-21T12:37:12.326Z,171.60
2018-03-21T12:40:15.536Z,167.50
2018-03-21T12:43:18.732Z,172.60
2018-03-21T12:46:21.889Z,170.80
2018-03-21T12:49:25.073Z,161.33
2018-03-21T12:52:29.154Z,164.03
2018-03-21T12:55:33.093Z,165.80
2018-03-21T12:58:36.272Z,166.03
2018-03-21T13:01:39.436Z,163.60
2018-03-21T13:04:42.650Z,161.63
2018-03-21T13:07:45.837Z,159.20
2018-03-21T13:10:49.006Z,158.97
2018-03-21T13:13:52.203Z,156.63
2018-03-21T13:16:55.364Z,155.37
2018-03-21T13:19:58.669Z,151.30
2018-03-21T13:23:01.842Z,149.80
2018-03-21T13:26:05.089Z,152.87
2018-03-21T13:29:08.245Z,146.43
2018-03-21T13:32:11.408Z,147.57
2018-03-21T13:35:14.600Z,142.70
2018-03-21T13:38:18.518Z,144.67
2018-03-21T13:41:21.696Z,141.57
2018-03-21T13:44:24.876Z,140.83
2018-03-21T13:47:28.032Z,140.60
2018-03-21T13:50:31.385Z,133.13
2018-03-21T13:53:34.538Z,134.37
2018-03-21T13:56:37.717Z,132.33
2018-03-21T13:59:40.877Z,128.83
2018-03-21T14:02:44.056Z,131.03
2018-03-21T14:05:47.229Z,130.13
2018-03-21T14:08:50.374Z,129.90
2018-03-21T14:11:53.563Z,124.57
2018-03-21T14:14:56.780Z,122.63
2018-03-21T14:18:00.106Z,122.27
2018-03-21T14:21:03.843Z,134.80
2018-03-21T14:24:07.524Z,149.07
2018-03-21T14:27:10.829Z,178.77
2018-03-21T14:30:14.442Z,201.40
2018-03-21T14:33:18.436Z,201.17
2018-03-21T14:36:21.616Z,212.03
2018-03-21T14:39:24.829Z,215.87
2018-03-21T14:42:28.015Z,219.40
2018-03-21T14:45:31.192Z,220.27
2018-03-21T14:48:34.752Z,224.73
2018-03-21T14:51:37.992Z,240.27
2018-03-21T14:54:41.166Z,239.57
2018-03-21T14:57:44.342Z,245.23
2018-03-21T15:00:48.258Z,260.07
2018-03-21T15:03:51.434Z,251.07
2018-03-21T15:06:54.630Z,257.33
2018-03-21T15:09:57.919Z,260.07
2018-03-21T15:13:03.169Z,266.27
2018-03-21T15:16:06.493Z,259.53
2018-03-21T15:19:09.680Z,265.80
2018-03-21T15:22:14.732Z,280.60
2018-03-21T15:25:17.961Z,352.40
2018-03-21T15:28:21.163Z,339.13
2018-03-21T15:31:24.320Z,329.53
2018-03-21T15:34:27.604Z,325.90
2018-03-21T15:37:30.877Z,322.17
2018-03-21T15:40:34.041Z,324.87
2018-03-21T15:43:37.217Z,313.53
2018-03-21T15:46:41.136Z,321.33
2018-03-21T15:49:45.094Z,314.60
2018-03-21T15:52:48.254Z,302.37
2018-03-21T15:55:51.504Z,304.37
2018-03-21T15:58:54.858Z,300.57
2018-03-21T16:01:58.138Z,296.37
2018-03-21T16:05:01.320Z,288.60
2018-03-21T16:08:05.244Z,277.47
2018-03-21T16:11:09.201Z,262.97
2018-03-21T16:14:12.372Z,267.50
2018-03-21T16:17:16.285Z,256.83
2018-03-21T16:20:20.253Z,245.07
2018-03-21T16:23:23.404Z,231.73
2018-03-21T16:26:26.577Z,226.20
2018-03-21T16:29:29.747Z,217.00
2018-03-21T16:32:33.936Z,213.80
2018-03-21T16:35:37.133Z,217.67
2018-03-21T16:38:40.292Z,200.70
2018-03-21T16:41:43.533Z,196.57
2018-03-21T16:44:46.860Z,200.07
2018-03-21T16:47:50.015Z,206.87
2018-03-21T16:50:53.227Z,214.53
2018-03-21T16:53:56.449Z,217.63
2018-03-21T16:56:59.879Z,217.90
2018-03-21T17:00:03.061Z,212.33
2018-03-21T17:03:06.299Z,210.23
2018-03-21T17:06:10.246Z,214.60
2018-03-21T17:09:13.406Z,208.77
2018-03-21T17:12:16.607Z,216.50
2018-03-21T17:15:19.776Z,202.53
2018-03-21T17:18:22.917Z,207.70
2018-03-21T17:21:26.100Z,203.93
2018-03-21T17:24:29.390Z,207.27
2018-03-21T17:27:33.649Z,194.07
2018-03-21T17:30:36.825Z,189.53
2018-03-21T17:33:40.009Z,171.03
2018-03-21T17:36:43.188Z,184.07
2018-03-21T17:39:46.351Z,213.60
2018-03-21T17:42:50.320Z,244.30
2018-03-21T17:45:53.501Z,300.63
2018-03-21T17:48:56.693Z,310.47
2018-03-21T17:51:59.858Z,330.17
2018-03-21T17:55:03.015Z,322.60
2018-03-21T17:58:06.187Z,353.63
2018-03-21T18:01:10.146Z,358.13
2018-03-21T18:04:13.335Z,356.70
2018-03-21T18:07:17.256Z,365.30
2018-03-21T18:10:20.400Z,352.13
2018-03-21T18:13:23.623Z,356.70
2018-03-21T18:16:26.802Z,350.13
2018-03-21T18:19:29.952Z,350.97
2018-03-21T18:22:33.124Z,341.73
2018-03-21T18:25:36.276Z,334.43
2018-03-21T18:28:39.460Z,338.30
2018-03-21T18:31:42.664Z,329.43
2018-03-21T18:34:45.817Z,324.23
2018-03-21T18:37:49.985Z,321.10
2018-03-21T18:40:53.134Z,312.83
2018-03-21T18:43:56.326Z,316.97
2018-03-21T18:46:59.545Z,313.77
2018-03-21T18:50:02.718Z,313.30
2018-03-21T18:53:05.913Z,309.00
2018-03-21T18:56:09.059Z,300.60
2018-03-21T18:59:12.244Z,304.10
2018-03-21T19:02:15.432Z,304.97
2018-03-21T19:05:19.354Z,297.93
2018-03-21T19:08:23.306Z,291.70
2018-03-21T19:11:26.487Z,284.00
2018-03-21T19:14:30.434Z,281.73
2018-03-21T19:17:33.597Z,279.90
2018-03-21T19:20:36.792Z,270.73
2018-03-21T19:23:39.969Z,271.73
2018-03-21T19:26:43.132Z,265.37
2018-03-21T19:29:46.305Z,263.73
2018-03-21T19:32:49.448Z,259.90
2018-03-21T19:35:52.637Z,258.90
2018-03-21T19:38:55.852Z,256.17
2018-03-21T19:41:59.027Z,241.50
2018-03-21T19:45:02.229Z,245.00
2018-03-21T19:48:05.373Z,246.33
2018-03-21T19:51:08.597Z,237.83
2018-03-21T19:54:11.774Z,236.67
2018-03-21T19:57:14.933Z,234.83
2018-03-21T20:00:18.103Z,232.80
2018-03-21T20:03:21.269Z,227.47
2018-03-21T20:06:25.209Z,228.73
2018-03-21T20:09:29.162Z,222.87
2018-03-21T20:12:32.328Z,220.90
2018-03-21T20:15:36.260Z,220.40
2018-03-21T20:18:40.180Z,219.03
2018-03-21T20:21:44.118Z,216.00
2018-03-21T20:24:48.039Z,208.20
2018-03-21T20:27:51.991Z,204.80
2018-03-21T20:30:55.173Z,198.90
2018-03-21T20:33:59.092Z,196.50
2018-03-21T20:37:03.157Z,196.80
2018-03-21T20:40:06.887Z,191.90
2018-03-21T20:43:10.202Z,190.90
2018-03-21T20:46:13.442Z,189.80
2018-03-21T20:49:16.681Z,184.30
2018-03-21T20:52:20.729Z,183.70
2018-03-21T20:55:23.948Z,177.93
2018-03-21T20:58:28.158Z,175.87
2018-03-21T21:01:31.892Z,176.10
2018-03-21T21:04:36.057Z,170.03
2018-03-21T21:07:39.244Z,167.57
2018-03-21T21:10:42.399Z,169.13
2018-03-21T21:13:45.820Z,160.70
2018-03-21T21:16:48.998Z,167.43
2018-03-21T21:19:52.168Z,165.00
2018-03-21T21:22:56.156Z,164.67
2018-03-21T21:25:59.359Z,160.40
2018-03-21T21:29:02.541Z,160.37
2018-03-21T21:32:05.757Z,153.97
2018-03-21T21:35:08.919Z,150.03
2018-03-21T21:38:12.862Z,152.47
2018-03-21T21:41:16.789Z,149.47
2018-03-21T21:44:20.743Z,146.33
2018-03-21T21:47:23.949Z,146.63
2018-03-21T21:50:27.101Z,141.83
2018-03-21T21:53:30.315Z,144.50
2018-03-21T21:56:33.477Z,141.87
2018-03-21T21:59:36.648Z,137.07
2018-03-21T22:02:39.817Z,138.17
2018-03-21T22:05:42.966Z,134.53
2018-03-21T22:08:46.900Z,133.97
2018-03-21T22:11:50.814Z,134.53
2018-03-21T22:14:54.769Z,127.23
2018-03-21T22:17:57.962Z,128.93
2018-03-21T22:21:01.940Z,125.83
2018-03-21T22:24:05.126Z,124.80
2018-03-21T22:27:08.284Z,122.93
2018-03-21T22:30:11.543Z,118.03
2018-03-21T22:33:14.725Z,120.00
2018-03-21T22:36:17.894Z,120.03
2018-03-21T22:39:21.148Z,118.30
2018-03-21T22:42:25.098Z,117.77
2018-03-21T22:45:29.222Z,115.60
2018-03-21T22:48:32.473Z,115.10
2018-03-21T22:51:35.637Z,112.30
2018-03-21T22:54:39.577Z,109.83
2018-03-21T22:57:42.728Z,106.90
2018-03-21T23:00:45.913Z,108.70
2018-03-21T23:03:49.070Z,105.67
2018-03-21T23:06:52.310Z,105.17
2018-03-21T23:09:55.498Z,105.27
2018-03-21T23:12:58.661Z,104.17
2018-03-21T23:16:01.872Z,98.37
2018-03-21T23:19:05.043Z,98.73
2018-03-21T23:22:08.980Z,100.50
2018-03-21T23:25:12.199Z,98.47
2018-03-21T23:28:15.339Z,93.27
2018-03-21T23:31:18.548Z,94.70
2018-03-21T23:34:21.813Z,92.40
2018-03-21T23:37:25.791Z,91.83
2018-03-21T23:40:29.007Z,92.07
2018-03-21T23:43:32.287Z,91.23
2018-03-21T23:46:35.465Z,90.37
2018-03-21T23:49:39.415Z,82.33
2018-03-21T23:52:42.629Z,87.57
2018-03-21T23:55:45.841Z,83.67
2018-03-21T23:58:49.006Z,85.80
